Fairchild Air Force Base, WA

3:17 AM PST on February 10, 2016 (GMT -0800)
Fairchild Air Force Base

Weather History for KSKA - December, 2013

Change the Weather History Date:

Sunday, December 15, 2013

  Actual Average (KGEG) Record (KGEG)
Temperature  
Mean Temperature 34 °F 27 °F  
Max Temperature 42 °F 32 °F 53 °F (1941)
Min Temperature 26 °F 22 °F -9 °F (1922)
Degree Days  
Heating Degree Days 31 38  
Month to date heating degree days 553  
Since 1 July heating degree days 2220  
Cooling Degree Days 0 0  
Month to date cooling degree days 0  
Year to date cooling degree days 450  
Moisture  
Dew Point 33 °F    
Average Humidity 91    
Maximum Humidity 100    
Minimum Humidity 80    
Precipitation  
Precipitation 0.00 in 0.08 in 0.61 in (2009)
Month to date precipitation 1.19  
Year to date precipitation 15.45  
Snow  
Snow 0.00 in 0.50 in 4.80 in (1963)
Month to date snowfall 6.4  
Since 1 July snowfall 13.9  
Snow Depth -    
Sea Level Pressure  
Sea Level Pressure 30.24 in    
Wind  
Wind Speed 7 mph (SE)    
Max Wind Speed 16 mph    
Max Gust Speed 17 mph    
Visibility 10 miles    
Events      
T = Trace of Precipitation, MM = Missing Value Source: NWS Daily Summary

Daily Weather History Graph

Daily Weather History Graph

Search for Another Location

Airport or City:

Trip Planner

Search our weather history database for the weather conditions in past years. The results will help you decide how hot, cold, wet, or windy it might be!

Date:

Astronomy

Dec. 15, 2013 Rise Set
Actual Time 7:32 AM PST 3:59 PM PST
Civil Twilight 6:56 AM PST 4:35 PM PST
Nautical Twilight 6:17 AM PST 5:14 PM PST
Astronomical Twilight 5:39 AM PST 5:52 PM PST
Moon 3:11 PM PST (12/15) 5:47 AM PST (12/15)
Length of Visible Light 9h 39m
Length of Day
8h 27m
Waxing Gibbous, 98% of the Moon is Illuminated
Dec 15
Waxing Gibbous
Dec 17
Full
Dec 25
Last Quarter
Jan 1
New
Jan 7
First Quarter

Hourly Weather History & Observations

Time (PST) Temp. Windchill Dew Point Humidity Pressure Visibility Wind Dir Wind Speed Gust Speed Precip Events Conditions
12:04 AM 32.0 °F 24.8 °F 32.0 °F 100% 30.24 in 10.0 mi East 8.1 mph - N/A   Clear
12:58 AM 31.8 °F 26.2 °F 29.5 °F 91% 30.30 in 10.0 mi South 5.8 mph - 0.00 in   Clear
1:58 AM 34.5 °F - 31.3 °F 88% 30.31 in 10.0 mi NE 1.2 mph - N/A   Clear
2:45 AM 28.4 °F 23.3 °F 28.4 °F 100% 30.24 in 10.0 mi ESE 4.6 mph - N/A   Clear
2:55 AM 28.4 °F - 28.4 °F 100% 30.24 in 10.0 mi East 1.2 mph - N/A   Clear
2:58 AM 29.1 °F - 28.0 °F 96% 30.31 in 10.0 mi Calm Calm - 0.00 in   Clear
3:58 AM 27.7 °F - 26.8 °F 96% 30.30 in 10.0 mi ENE 2.3 mph - N/A   Clear
4:58 AM 27.1 °F 21.8 °F 26.4 °F 97% 30.29 in 10.0 mi East 4.6 mph - N/A   Clear
5:11 AM 26.6 °F 21.2 °F 26.6 °F 100% 30.21 in 10.0 mi ESE 4.6 mph - N/A   Clear
5:27 AM 26.6 °F 20.0 °F 26.6 °F 100% 30.20 in 10.0 mi East 5.8 mph - N/A   Clear
5:58 AM 28.8 °F 21.7 °F 27.9 °F 96% 30.28 in 10.0 mi ESE 6.9 mph - 0.00 in   Clear
6:48 AM 28.4 °F 20.4 °F 26.6 °F 93% 30.19 in 10.0 mi ESE 8.1 mph - N/A   Clear
6:58 AM 27.9 °F 22.6 °F 26.6 °F 95% 30.26 in 10.0 mi ESE 4.6 mph - 0.00 in   Clear
6:59 AM 28.4 °F 24.6 °F 26.6 °F 93% 30.19 in 10.0 mi ESE 3.5 mph - N/A   Clear
7:05 AM 28.4 °F 23.3 °F 28.4 °F 100% 30.19 in 10.0 mi East 4.6 mph - N/A   Clear
7:32 AM 30.2 °F 24.3 °F 28.4 °F 93% 30.19 in 10.0 mi East 5.8 mph - N/A   Clear
7:58 AM 28.6 °F 22.4 °F 27.5 °F 96% 30.28 in 10.0 mi ESE 5.8 mph - 0.00 in   Clear
8:30 AM 28.4 °F 24.6 °F 28.4 °F 100% 30.20 in 10.0 mi East 3.5 mph - N/A   Partly Cloudy
8:55 AM 32.0 °F 27.5 °F 32.0 °F 100% 30.21 in 10.0 mi East 4.6 mph - N/A   Mostly Cloudy
8:58 AM 32.9 °F 29.8 °F 31.1 °F 93% 30.29 in 10.0 mi ENE 3.5 mph - 0.00 in   Mostly Cloudy
9:03 AM 32.0 °F 27.5 °F 32.0 °F 100% 30.21 in 10.0 mi East 4.6 mph - N/A   Mostly Cloudy
9:50 AM 32.0 °F 24.8 °F 32.0 °F 100% 30.21 in 10.0 mi ESE 8.1 mph - N/A   Overcast
9:58 AM 33.6 °F 29.4 °F 32.2 °F 94% 30.30 in 10.0 mi East 4.6 mph - 0.00 in   Overcast
10:07 AM 35.6 °F 32.8 °F 32.0 °F 87% 30.23 in 10.0 mi East 3.5 mph - N/A   Overcast
10:09 AM 35.6 °F 32.8 °F 32.0 °F 87% 30.23 in 10.0 mi East 3.5 mph - N/A   Overcast
10:11 AM 35.6 °F 31.7 °F 32.0 °F 87% 30.23 in 10.0 mi East 4.6 mph - N/A   Overcast
10:14 AM 35.6 °F 31.7 °F 32.0 °F 87% 30.23 in 10.0 mi ENE 4.6 mph - N/A   Overcast
10:29 AM 35.6 °F 31.7 °F 32.0 °F 87% 30.22 in 10.0 mi East 4.6 mph - N/A   Overcast
10:31 AM 35.6 °F 31.7 °F 32.0 °F 87% 30.23 in 10.0 mi East 4.6 mph - N/A   Overcast
10:46 AM 37.4 °F 33.8 °F 33.8 °F 87% 30.22 in 10.0 mi ESE 4.6 mph - N/A   Overcast
10:58 AM 37.9 °F 33.5 °F 34.0 °F 86% 30.30 in 10.0 mi ESE 5.8 mph - 0.00 in   Overcast
11:05 AM 39.2 °F 34.2 °F 33.8 °F 81% 30.22 in 10.0 mi SE 6.9 mph - N/A   Overcast
11:19 AM 39.2 °F 31.6 °F 33.8 °F 81% 30.22 in 10.0 mi SE 12.7 mph - N/A   Overcast
11:58 AM 39.7 °F 33.7 °F 34.3 °F 81% 30.28 in 10.0 mi SE 9.2 mph - 0.00 in   Overcast
12:32 PM 41.0 °F 34.7 °F 35.6 °F 81% 30.21 in 10.0 mi SE 10.4 mph - N/A   Scattered Clouds
12:39 PM 41.0 °F 35.8 °F 35.6 °F 81% 30.20 in 10.0 mi SE 8.1 mph - N/A   Scattered Clouds
12:58 PM 40.8 °F 33.7 °F 35.2 °F 80% 30.26 in 10.0 mi SE 12.7 mph - 0.00 in   Partly Cloudy
1:14 PM 41.0 °F 34.3 °F 35.6 °F 81% 30.20 in 10.0 mi SSE 11.5 mph - N/A   Clear
1:19 PM 41.0 °F 34.3 °F 35.6 °F 81% 30.20 in 10.0 mi SE 11.5 mph - N/A   Clear
1:47 PM 41.0 °F 34.3 °F 35.6 °F 81% 30.20 in 10.0 mi SE 11.5 mph - N/A   Clear
1:52 PM 41.0 °F 33.9 °F 35.6 °F 81% 30.19 in 10.0 mi SE 12.7 mph - N/A   Clear
1:58 PM 40.8 °F 34.1 °F 36.1 °F 83% 30.25 in 10.0 mi SSE 11.5 mph - 0.00 in   Clear
2:07 PM 41.0 °F 34.3 °F 37.4 °F 87% 30.19 in 10.0 mi SE 11.5 mph - N/A   Clear
2:30 PM 42.8 °F 37.5 °F 37.4 °F 81% 30.18 in 10.0 mi SE 9.2 mph - N/A   Clear
2:58 PM 41.7 °F 36.7 °F 37.0 °F 83% 30.25 in 10.0 mi ESE 8.1 mph - 0.00 in   Clear
3:58 PM 39.4 °F 32.7 °F 36.0 °F 88% 30.27 in 10.0 mi South 10.4 mph - N/A   Clear
4:56 PM 37.4 °F 29.8 °F 35.6 °F 93% 30.20 in 10.0 mi SSE 11.5 mph - N/A   Clear
4:58 PM 37.0 °F 29.3 °F 35.2 °F 93% 30.27 in 10.0 mi SSE 11.5 mph - N/A   Clear
5:13 PM 39.2 °F 32.0 °F 35.6 °F 87% 30.20 in 10.0 mi SSE 11.5 mph - N/A   Clear
5:18 PM 39.2 °F 32.0 °F 35.6 °F 87% 30.20 in 10.0 mi SSE 11.5 mph - N/A   Clear
5:35 PM 39.2 °F 34.2 °F 37.4 °F 93% 30.20 in 10.0 mi SSE 6.9 mph - N/A   Clear
5:58 PM 39.0 °F 32.3 °F 36.9 °F 92% 30.27 in 10.0 mi South 10.4 mph - 0.00 in   Clear
6:58 PM 37.0 °F 31.6 °F 35.8 °F 95% 30.27 in 10.0 mi SE 6.9 mph - N/A   Clear
7:30 PM 37.4 °F 29.3 °F 35.6 °F 93% 30.21 in 10.0 mi SSE 12.7 mph - N/A   Clear
7:40 PM 37.4 °F 29.8 °F 35.6 °F 93% 30.21 in 10.0 mi South 11.5 mph - N/A   Clear
7:55 PM 37.4 °F 28.9 °F 35.6 °F 93% 30.21 in 10.0 mi SSE 13.8 mph - N/A   Clear
7:58 PM 36.9 °F 28.7 °F 35.6 °F 95% 30.28 in 10.0 mi SSE 12.7 mph - 0.00 in   Clear
8:04 PM 37.4 °F 29.8 °F 35.6 °F 93% 30.21 in 10.0 mi SSE 11.5 mph - N/A   Clear
8:58 PM 36.5 °F 29.7 °F 35.6 °F 97% 30.30 in 10.0 mi SSE 9.2 mph - 0.00 in   Clear
9:01 PM 37.4 °F 30.3 °F 35.6 °F 93% 30.22 in 10.0 mi SSE 10.4 mph - N/A   Clear
9:17 PM 35.6 °F 27.1 °F 35.6 °F 100% 30.22 in 10.0 mi SSE 12.7 mph - N/A   Clear
9:30 PM 35.6 °F 27.1 °F 35.6 °F 100% 30.22 in 10.0 mi SSE 12.7 mph - N/A   Clear
9:53 PM 35.6 °F 26.6 °F 35.6 °F 100% 30.23 in 10.0 mi SSE 13.8 mph - N/A   Clear
9:58 PM 35.6 °F 26.6 °F 35.6 °F 100% 30.30 in 10.0 mi SSE 13.8 mph - 0.00 in   Clear
10:05 PM 35.6 °F 26.2 °F 33.8 °F 93% 30.23 in 10.0 mi SSE 15.0 mph - N/A   Clear
10:29 PM 35.6 °F 27.1 °F 33.8 °F 93% 30.23 in 10.0 mi SSE 12.7 mph - N/A   Clear
10:32 PM 35.6 °F 26.6 °F 33.8 °F 93% 30.23 in 10.0 mi SSE 13.8 mph - N/A   Clear
10:42 PM 35.6 °F 26.6 °F 33.8 °F 93% 30.23 in 10.0 mi South 13.8 mph - N/A   Clear
10:58 PM 36.0 °F 27.5 °F 34.2 °F 93% 30.30 in 10.0 mi SSE 12.7 mph - 0.00 in   Clear
11:34 PM 35.6 °F 25.9 °F 32.0 °F 87% 30.24 in 10.0 mi South 16.1 mph - N/A   Clear
11:47 PM 35.6 °F 27.5 °F 33.8 °F 93% 30.25 in 10.0 mi SSE 11.5 mph - N/A   Clear
11:58 PM 34.9 °F 27.7 °F 34.0 °F 97% 30.31 in 10.0 mi SSE 9.2 mph 17.3 mph 0.00 in   Clear
11:59 PM 35.6 °F 28.6 °F 33.8 °F 93% 30.26 in 10.0 mi SSE 9.2 mph 17.3 mph N/A   Partly Cloudy